Time;durP1;ratioP1;P1;durP2;ratioP2;P2;SDS_P1;SDS_P2;PMS_P1;PMS_P2;Temp;Humidity;BMP_temperature;BMP_pressure;BME280_temperature;BME280_humidity;BME280_pressure;Samples;Min_cycle;Max_cycle;Signal;HPM_P1;HPM_P2
2021/12/15 00:01:25;;;;;;;69.30;33.47;;;8.70;95.00;;;;;;5032329;28;20223;-89
2021/12/15 00:03:51;;;;;;;69.43;31.97;;;8.70;95.00;;;;;;5032412;28;20172;-89
2021/12/15 00:06:18;;;;;;;51.37;24.70;;;8.70;95.00;;;;;;5032228;28;20172;-89
2021/12/15 00:08:48;;;;;;;62.57;30.67;;;8.70;95.10;;;;;;5032393;28;20231;-88
2021/12/15 00:11:15;;;;;;;67.03;33.43;;;8.80;95.00;;;;;;5032290;28;20197;-88
2021/12/15 00:13:43;;;;;;;64.70;32.13;;;8.70;95.00;;;;;;5032503;28;20179;-88
2021/12/15 00:16:09;;;;;;;67.67;34.37;;;8.70;95.00;;;;;;5032236;28;20219;-88
2021/12/15 00:18:36;;;;;;;63.63;29.47;;;8.70;95.00;;;;;;5032197;28;20177;-88
2021/12/15 00:21:03;;;;;;;52.40;23.43;;;8.70;95.10;;;;;;5032545;28;20208;-88
2021/12/15 00:23:30;;;;;;;57.47;25.93;;;8.70;95.10;;;;;;5033120;28;20191;-89
2021/12/15 00:25:56;;;;;;;50.33;22.77;;;8.70;95.10;;;;;;5032141;28;20272;-89
2021/12/15 00:28:21;;;;;;;66.27;30.77;;;8.70;95.10;;;;;;5032078;28;20342;-89
2021/12/15 00:30:48;;;;;;;62.43;30.10;;;8.80;95.10;;;;;;5031959;28;20291;-89
2021/12/15 00:33:13;;;;;;;50.00;24.23;;;8.70;95.20;;;;;;5032048;28;20708;-89
2021/12/15 00:35:40;;;;;;;63.43;31.30;;;8.70;95.20;;;;;;5033211;28;20223;-89
2021/12/15 00:38:06;;;;;;;64.73;30.13;;;8.70;95.10;;;;;;5033167;28;20226;-89
2021/12/15 00:40:32;;;;;;;66.50;31.60;;;8.80;95.10;;;;;;5032738;28;20183;-89
2021/12/15 00:42:58;;;;;;;65.13;32.77;;;8.80;95.10;;;;;;5031957;28;20182;-88
2021/12/15 00:45:25;;;;;;;63.73;29.83;;;8.80;95.10;;;;;;5031934;28;20187;-89
2021/12/15 00:47:51;;;;;;;62.43;29.80;;;8.70;95.10;;;;;;5031761;28;20200;-89
2021/12/15 00:50:19;;;;;;;58.87;30.20;;;8.80;95.10;;;;;;5033075;28;20222;-89
2021/12/15 00:52:48;;;;;;;57.00;28.50;;;8.80;95.10;;;;;;5032057;28;20200;-89
2021/12/15 00:55:18;;;;;;;59.00;27.77;;;8.70;95.10;;;;;;5031761;28;20664;-89
2021/12/15 00:57:44;;;;;;;65.97;32.30;;;8.80;95.10;;;;;;5033011;28;20196;-89
2021/12/15 01:00:38;;;;;;;59.40;30.50;;;8.80;95.10;;;;;;5031714;28;20272;-89
2021/12/15 01:03:05;;;;;;;59.40;28.70;;;8.80;95.10;;;;;;5031957;28;20284;-89
2021/12/15 01:05:36;;;;;;;58.90;28.73;;;8.80;95.10;;;;;;5031683;28;20200;-89
2021/12/15 01:08:04;;;;;;;57.63;27.73;;;8.80;95.10;;;;;;5033169;28;20279;-89
2021/12/15 01:10:44;;;;;;;57.80;28.90;;;8.80;95.10;;;;;;5031552;28;20176;-89
2021/12/15 01:21:25;;;;;;;63.40;29.77;;;8.80;95.00;;;;;;5035308;28;20207;-88
2021/12/15 01:23:51;;;;;;;57.20;28.07;;;8.80;95.00;;;;;;5036711;28;20173;-88
2021/12/15 01:26:16;;;;;;;57.70;30.43;;;8.90;95.00;;;;;;5035664;28;20206;-88
2021/12/15 01:28:43;;;;;;;58.30;29.17;;;8.90;95.00;;;;;;5035270;28;20250;-89
2021/12/15 01:31:10;;;;;;;54.53;27.33;;;8.90;95.00;;;;;;5035435;28;20196;-89
2021/12/15 01:33:36;;;;;;;53.57;26.53;;;8.90;95.00;;;;;;5034998;28;20593;-89
2021/12/15 01:36:04;;;;;;;60.67;31.27;;;8.90;95.00;;;;;;5035026;28;20176;-89
2021/12/15 01:38:33;;;;;;;61.00;31.23;;;8.90;95.00;;;;;;5035192;28;20176;-89
2021/12/15 01:41:00;;;;;;;57.27;30.23;;;8.90;95.00;;;;;;5036096;28;20196;-88
2021/12/15 01:46:53;;;;;;;64.90;32.00;;;8.90;95.00;;;;;;5035005;28;20172;-88
2021/12/15 01:49:11;;;;;;;59.07;30.37;;;8.90;95.00;;;;;;5036802;28;20286;-89
2021/12/15 01:51:38;;;;;;;57.40;26.57;;;9.00;95.00;;;;;;5036292;28;20192;-89
2021/12/15 01:54:04;;;;;;;64.50;31.03;;;8.90;94.90;;;;;;5035548;28;20256;-88
2021/12/15 01:56:30;;;;;;;57.33;31.23;;;9.00;94.90;;;;;;5034628;28;20173;-88
2021/12/15 01:58:56;;;;;;;66.67;32.17;;;9.00;94.90;;;;;;5034635;28;20173;-89
2021/12/15 02:01:22;;;;;;;64.40;29.87;;;9.00;95.00;;;;;;5034701;28;20212;-88
2021/12/15 02:03:48;;;;;;;57.40;28.47;;;9.00;94.90;;;;;;5035064;28;20609;-88
2021/12/15 02:06:14;;;;;;;72.97;32.23;;;9.00;95.00;;;;;;5034545;28;20203;-88
2021/12/15 02:08:40;;;;;;;72.23;33.00;;;9.00;94.90;;;;;;5034462;28;20200;-88
2021/12/15 02:11:07;;;;;;;62.17;30.63;;;9.10;94.80;;;;;;5034381;28;20271;-88
2021/12/15 02:13:33;;;;;;;63.13;28.13;;;9.10;94.80;;;;;;5034367;28;20169;-88
2021/12/15 02:16:01;;;;;;;51.77;25.23;;;9.10;94.80;;;;;;5034599;28;20546;-89
2021/12/15 02:18:30;;;;;;;67.23;29.87;;;9.10;94.80;;;;;;5034255;28;20176;-88
2021/12/15 02:21:03;;;;;;;61.40;27.90;;;9.10;94.90;;;;;;5034382;28;20291;-88
2021/12/15 02:23:37;;;;;;;59.57;27.60;;;9.10;94.90;;;;;;5035524;28;20637;-88
2021/12/15 02:26:09;;;;;;;69.70;31.10;;;9.10;94.80;;;;;;5034199;28;20255;-88
2021/12/15 02:28:37;;;;;;;68.27;31.60;;;9.10;94.80;;;;;;5035226;28;20185;-88
2021/12/15 02:31:55;;;;;;;69.73;32.33;;;9.10;94.90;;;;;;5035181;28;20219;-89
2021/12/15 02:34:04;;;;;;;69.83;31.97;;;9.10;94.80;;;;;;5037608;28;20664;-88
2021/12/15 02:39:15;;;;;;;67.63;30.70;;;9.20;94.80;;;;;;5035654;28;20164;-88
2021/12/15 02:41:43;;;;;;;65.53;28.43;;;9.20;94.80;;;;;;5034416;28;20243;-88
2021/12/15 02:44:13;;;;;;;64.20;28.03;;;9.20;94.80;;;;;;5033734;28;20169;-88
2021/12/15 02:46:40;;;;;;;70.00;30.47;;;9.10;94.80;;;;;;5033940;28;20165;-88
2021/12/15 02:49:09;;;;;;;73.17;34.17;;;9.10;94.80;;;;;;5034886;28;20168;-88
2021/12/15 02:51:36;;;;;;;72.77;31.90;;;9.20;94.90;;;;;;5034821;28;20680;-88
2021/12/15 02:54:03;;;;;;;74.23;34.40;;;9.20;94.80;;;;;;5034817;28;20172;-88
2021/12/15 02:56:29;;;;;;;68.50;31.77;;;9.20;94.80;;;;;;5034786;28;20173;-88
2021/12/15 02:59:02;;;;;;;67.10;29.53;;;9.20;94.80;;;;;;5033459;28;20184;-88
2021/12/15 03:01:54;;;;;;;69.87;31.57;;;9.20;94.70;;;;;;5033357;28;20212;-89
2021/12/15 03:06:56;;;;;;;77.40;33.77;;;9.20;94.70;;;;;;5034800;28;20203;-88
2021/12/15 03:17:35;;;;;;;79.03;34.40;;;9.20;94.70;;;;;;5034891;28;20594;-88
2021/12/15 03:20:01;;;;;;;81.30;34.67;;;9.20;94.80;;;;;;5033015;28;20176;-91
2021/12/15 03:22:27;;;;;;;83.63;35.57;;;9.20;94.80;;;;;;5033144;28;20205;-88
2021/12/15 03:24:53;;;;;;;82.07;36.13;;;9.20;94.80;;;;;;5032989;28;20275;-89
2021/12/15 03:33:14;;;;;;;82.77;35.10;;;9.20;94.80;;;;;;5033155;28;20258;-89
2021/12/15 03:35:47;;;;;;;82.97;34.07;;;9.20;94.80;;;;;;5034466;28;20180;-91
2021/12/15 03:38:13;;;;;;;81.77;33.10;;;9.20;94.90;;;;;;5034170;28;20231;-88
2021/12/15 03:40:41;;;;;;;87.87;35.23;;;9.20;94.80;;;;;;5033583;28;20192;-89
2021/12/15 03:43:11;;;;;;;83.03;34.10;;;9.20;94.80;;;;;;5033015;28;20276;-88
2021/12/15 03:45:54;;;;;;;81.00;35.27;;;9.20;94.90;;;;;;5033373;28;20629;-88
2021/12/15 03:48:25;;;;;;;79.30;31.17;;;9.20;94.90;;;;;;5032573;28;20231;-88
2021/12/15 03:50:52;;;;;;;84.87;35.87;;;9.20;94.90;;;;;;5032874;28;20200;-88
2021/12/15 03:53:18;;;;;;;80.70;33.27;;;9.20;94.80;;;;;;5032574;28;20208;-88
2021/12/15 03:55:45;;;;;;;85.03;32.70;;;9.20;94.90;;;;;;5033677;28;20695;-88
2021/12/15 03:58:14;;;;;;;76.97;29.87;;;9.30;94.90;;;;;;5032679;28;20184;-88
2021/12/15 04:00:47;;;;;;;82.67;34.33;;;9.30;94.90;;;;;;5033949;28;20187;-88
2021/12/15 04:03:26;;;;;;;79.63;31.30;;;9.30;94.90;;;;;;5032962;28;20181;-88
2021/12/15 04:05:54;;;;;;;89.73;34.00;;;9.30;94.80;;;;;;5032691;28;20206;-88
2021/12/15 04:08:21;;;;;;;85.97;30.53;;;9.30;94.90;;;;;;5032193;28;20668;-88
2021/12/15 04:10:47;;;;;;;89.10;34.60;;;9.30;94.90;;;;;;5033409;28;20646;-88
2021/12/15 04:13:13;;;;;;;86.03;32.60;;;9.30;95.00;;;;;;5032281;28;20181;-88
2021/12/15 04:15:48;;;;;;;89.03;33.83;;;9.30;94.90;;;;;;5032206;28;20181;-89
2021/12/15 04:18:14;;;;;;;90.27;33.97;;;9.30;94.90;;;;;;5032208;28;20176;-88
2021/12/15 04:20:41;;;;;;;87.80;34.23;;;9.30;95.00;;;;;;5032227;28;20271;-89
2021/12/15 04:23:11;;;;;;;89.07;34.00;;;9.30;95.10;;;;;;5032481;28;20663;-91
2021/12/15 04:25:39;;;;;;;94.23;34.93;;;9.30;95.00;;;;;;5032093;28;20181;-91
2021/12/15 04:28:14;;;;;;;96.33;34.53;;;9.30;95.10;;;;;;5032373;28;20236;-89
2021/12/15 04:30:46;;;;;;;91.23;33.87;;;9.30;95.10;;;;;;5032079;28;20176;-89
2021/12/15 04:33:33;;;;;;;97.20;34.67;;;9.30;95.20;;;;;;5032052;28;20169;-89
2021/12/15 04:36:01;;;;;;;102.50;34.73;;;9.30;95.30;;;;;;5032915;28;20199;-89
2021/12/15 04:38:29;;;;;;;110.87;35.97;;;9.30;95.40;;;;;;5033260;28;20266;-89
2021/12/15 04:40:57;;;;;;;98.47;33.33;;;9.30;95.40;;;;;;5031972;28;20201;-89
2021/12/15 04:43:22;;;;;;;113.63;36.93;;;9.30;95.40;;;;;;5032045;28;20181;-89
2021/12/15 04:45:48;;;;;;;103.00;36.70;;;9.40;95.50;;;;;;5031925;28;20183;-88
2021/12/15 04:48:14;;;;;;;107.83;36.17;;;9.40;95.60;;;;;;5031933;28;20204;-89
2021/12/15 04:50:41;;;;;;;119.30;38.53;;;9.40;95.50;;;;;;5031839;28;20648;-90
2021/12/15 04:53:09;;;;;;;121.27;38.17;;;9.40;95.60;;;;;;5032761;28;20188;-89
2021/12/15 04:55:37;;;;;;;127.40;38.00;;;9.40;95.60;;;;;;5033066;28;20181;-89
2021/12/15 04:58:07;;;;;;;134.97;37.93;;;9.40;95.60;;;;;;5036238;28;20187;-91
2021/12/15 05:00:37;;;;;;;141.53;41.83;;;9.40;95.70;;;;;;5035735;28;20227;-91
2021/12/15 05:03:04;;;;;;;126.77;37.03;;;9.40;95.70;;;;;;5035602;28;20246;-89
2021/12/15 05:05:30;;;;;;;134.63;42.73;;;9.40;95.70;;;;;;5035605;28;20212;-88
2021/12/15 05:07:56;;;;;;;141.40;43.10;;;9.50;95.80;;;;;;5035530;28;20239;-89
2021/12/15 05:10:23;;;;;;;143.73;44.70;;;9.50;95.80;;;;;;5035473;28;20185;-89
2021/12/15 05:12:49;;;;;;;146.97;44.10;;;9.40;95.80;;;;;;5035376;28;20747;-88
2021/12/15 05:15:16;;;;;;;147.43;45.60;;;9.50;95.80;;;;;;5035504;28;20181;-91
2021/12/15 05:17:41;;;;;;;164.53;46.37;;;9.40;95.80;;;;;;5035381;28;20698;-91
2021/12/15 05:20:09;;;;;;;151.83;47.13;;;9.40;95.80;;;;;;5035676;28;20176;-90
2021/12/15 05:22:35;;;;;;;153.77;46.87;;;9.40;95.80;;;;;;5036457;28;20199;-90
2021/12/15 05:25:03;;;;;;;136.83;45.00;;;9.40;95.80;;;;;;5035570;28;20177;-90
2021/12/15 05:27:29;;;;;;;147.67;42.57;;;9.50;95.80;;;;;;5036289;28;20208;-90
2021/12/15 05:29:57;;;;;;;142.33;45.13;;;9.50;95.70;;;;;;5036421;28;20280;-88
2021/12/15 05:32:23;;;;;;;150.47;46.80;;;9.50;95.70;;;;;;5036231;28;20188;-91
2021/12/15 05:34:51;;;;;;;147.30;44.97;;;9.50;95.70;;;;;;5035023;28;20199;-90
2021/12/15 05:37:19;;;;;;;151.77;47.43;;;9.50;95.70;;;;;;5035307;28;20180;-90
2021/12/15 05:39:45;;;;;;;141.67;45.57;;;9.60;95.60;;;;;;5035271;28;20176;-88
2021/12/15 05:42:11;;;;;;;123.07;40.50;;;9.60;95.60;;;;;;5035820;28;20296;-90
2021/12/15 05:44:37;;;;;;;154.73;48.13;;;9.60;95.60;;;;;;5034924;28;20219;-88
2021/12/15 05:47:04;;;;;;;133.80;45.13;;;9.50;95.50;;;;;;5034923;28;20228;-88
2021/12/15 05:49:30;;;;;;;144.77;45.60;;;9.60;95.50;;;;;;5034772;28;20212;-88
2021/12/15 05:51:57;;;;;;;149.30;49.50;;;9.60;95.50;;;;;;5035010;28;20224;-89
2021/12/15 05:54:23;;;;;;;139.67;46.60;;;9.70;95.40;;;;;;5034755;28;20177;-89
2021/12/15 05:56:49;;;;;;;134.60;45.03;;;9.70;95.40;;;;;;5034693;28;20275;-90
2021/12/15 05:59:15;;;;;;;135.20;48.17;;;9.70;95.40;;;;;;5034722;28;20215;-88
2021/12/15 06:01:41;;;;;;;129.43;44.23;;;9.70;95.30;;;;;;5034885;28;20327;-90
2021/12/15 06:04:07;;;;;;;145.10;51.10;;;9.70;95.30;;;;;;5034669;28;20679;-90
2021/12/15 06:06:34;;;;;;;133.93;46.93;;;9.70;95.20;;;;;;5035245;28;20290;-90
2021/12/15 06:09:03;;;;;;;143.33;50.43;;;9.70;95.20;;;;;;5036280;28;20186;-90
2021/12/15 06:11:29;;;;;;;116.27;45.10;;;9.70;95.10;;;;;;5035620;28;20200;-91
2021/12/15 06:13:54;;;;;;;124.73;45.70;;;9.70;95.10;;;;;;5034333;28;20176;-90
2021/12/15 06:16:22;;;;;;;118.40;47.03;;;9.70;95.10;;;;;;5034891;28;20177;-90
2021/12/15 06:18:50;;;;;;;127.60;46.20;;;9.80;95.00;;;;;;5034316;28;20180;-90
2021/12/15 06:21:17;;;;;;;126.87;48.23;;;9.80;95.00;;;;;;5034214;28;20232;-90
2021/12/15 06:23:43;;;;;;;122.40;48.17;;;9.80;95.00;;;;;;5034139;28;20187;-91
2021/12/15 06:26:10;;;;;;;122.87;47.17;;;9.80;95.00;;;;;;5034227;28;20192;-90
2021/12/15 06:28:37;;;;;;;133.67;46.77;;;9.80;95.00;;;;;;5034113;28;20211;-91
2021/12/15 06:31:06;;;;;;;128.00;44.27;;;9.80;95.00;;;;;;5033941;28;20200;-90
2021/12/15 06:33:33;;;;;;;131.30;50.70;;;9.80;95.00;;;;;;5035279;28;20173;-88
2021/12/15 06:36:00;;;;;;;137.70;49.43;;;9.80;95.00;;;;;;5034562;28;20173;-90
2021/12/15 06:38:30;;;;;;;102.37;39.40;;;9.80;95.00;;;;;;5034307;28;20184;-88
2021/12/15 06:40:57;;;;;;;124.53;47.77;;;9.90;95.00;;;;;;5033792;28;20201;-91
2021/12/15 06:43:24;;;;;;;110.73;46.27;;;9.90;94.90;;;;;;5034008;28;20641;-90
2021/12/15 06:46:00;;;;;;;111.87;46.67;;;9.90;94.90;;;;;;5034953;28;20184;-90
2021/12/15 06:59:23;;;;;;;103.20;42.97;;;9.90;94.80;;;;;;5035009;28;20172;-90
2021/12/15 07:01:50;;;;;;;99.47;43.03;;;9.90;94.70;;;;;;5033450;28;20212;-90
2021/12/15 07:04:18;;;;;;;100.33;42.93;;;9.80;94.70;;;;;;5033393;28;20560;-90
2021/12/15 07:06:43;;;;;;;91.80;39.80;;;9.80;94.70;;;;;;5033326;28;20553;-91
2021/12/15 07:09:09;;;;;;;95.53;42.50;;;9.90;94.60;;;;;;5033438;28;20184;-89
2021/12/15 07:11:35;;;;;;;86.50;37.53;;;9.90;94.60;;;;;;5033149;28;20192;-90
2021/12/15 07:14:00;;;;;;;93.23;41.67;;;9.90;94.50;;;;;;5033334;28;20185;-90
2021/12/15 07:16:28;;;;;;;86.70;42.87;;;9.90;94.50;;;;;;5033269;28;20181;-89
2021/12/15 07:19:07;;;;;;;85.63;40.10;;;9.90;94.50;;;;;;5033602;28;20207;-90
2021/12/15 07:21:40;;;;;;;85.70;37.77;;;9.90;94.50;;;;;;5033028;28;20204;-90
2021/12/15 07:24:07;;;;;;;91.33;41.53;;;9.90;94.40;;;;;;5034323;28;20681;-90
2021/12/15 07:26:34;;;;;;;90.53;42.43;;;9.90;94.40;;;;;;5032972;28;20177;-90
2021/12/15 07:29:00;;;;;;;85.03;38.40;;;9.90;94.30;;;;;;5032914;28;20188;-90
2021/12/15 07:31:25;;;;;;;89.00;41.37;;;9.90;94.30;;;;;;5034119;28;20197;-90
2021/12/15 07:33:51;;;;;;;76.67;39.57;;;9.90;94.20;;;;;;5033173;28;20187;-91
2021/12/15 07:36:17;;;;;;;91.53;42.93;;;9.90;94.20;;;;;;5033240;28;20190;-90
2021/12/15 07:38:44;;;;;;;87.40;42.33;;;9.80;94.20;;;;;;5034452;28;20537;-90
2021/12/15 07:44:07;;;;;;;83.17;40.70;;;9.80;94.20;;;;;;5035188;28;20635;-90
2021/12/15 07:46:33;;;;;;;94.03;42.33;;;9.80;94.20;;;;;;5032825;28;20179;-90
2021/12/15 07:48:58;;;;;;;87.30;39.87;;;9.80;94.20;;;;;;5033602;28;20236;-90
2021/12/15 07:51:24;;;;;;;85.10;43.10;;;9.80;94.30;;;;;;5033138;28;20206;-90
2021/12/15 07:53:49;;;;;;;81.50;39.03;;;9.90;94.20;;;;;;5032647;28;20169;-90
2021/12/15 07:56:16;;;;;;;79.73;39.03;;;9.90;94.20;;;;;;5032597;28;20643;-90
2021/12/15 07:58:42;;;;;;;77.43;37.33;;;9.90;94.10;;;;;;5032799;28;20208;-91
2021/12/15 08:01:09;;;;;;;79.07;39.80;;;10.00;94.10;;;;;;5032361;28;20205;-91
2021/12/15 08:03:37;;;;;;;77.53;39.00;;;9.90;94.00;;;;;;5033319;28;20179;-92
2021/12/15 08:06:04;;;;;;;78.43;37.73;;;9.90;94.10;;;;;;5033753;28;20263;-92
2021/12/15 08:08:30;;;;;;;77.97;40.10;;;9.90;94.10;;;;;;5032357;28;20557;-91
2021/12/15 08:10:57;;;;;;;79.40;38.70;;;9.80;94.20;;;;;;5032624;28;20196;-92
2021/12/15 08:13:29;;;;;;;74.47;36.97;;;9.90;94.20;;;;;;5032615;28;20643;-92
2021/12/15 08:15:54;;;;;;;71.27;37.30;;;9.90;94.10;;;;;;5032656;28;20169;-90
2021/12/15 08:18:20;;;;;;;75.40;36.57;;;9.90;94.10;;;;;;5032400;28;20231;-92
2021/12/15 08:20:46;;;;;;;76.87;37.37;;;9.80;94.10;;;;;;5032981;28;20212;-92
2021/12/15 08:23:12;;;;;;;75.13;35.83;;;9.80;94.10;;;;;;5033491;28;20659;-91
2021/12/15 08:25:39;;;;;;;70.70;37.93;;;9.80;94.20;;;;;;5032302;28;20179;-91
2021/12/15 08:28:06;;;;;;;75.97;37.77;;;9.90;94.20;;;;;;5032145;28;20200;-92
2021/12/15 08:30:34;;;;;;;71.73;36.10;;;9.90;94.20;;;;;;5036533;28;20169;-92
2021/12/15 08:33:03;;;;;;;66.97;34.33;;;9.90;94.10;;;;;;5038896;28;20179;-92
2021/12/15 08:35:36;;;;;;;72.97;38.20;;;9.80;94.10;;;;;;5038868;28;20264;-92
2021/12/15 08:38:02;;;;;;;71.83;36.70;;;9.80;94.10;;;;;;5039917;28;20161;-91
2021/12/15 08:40:28;;;;;;;70.97;35.40;;;9.80;94.10;;;;;;5039097;28;20522;-89
2021/12/15 08:42:54;;;;;;;64.67;33.73;;;9.80;94.10;;;;;;5038600;28;20267;-91
2021/12/15 08:45:21;;;;;;;72.83;36.73;;;9.90;94.10;;;;;;5038533;28;20200;-91
2021/12/15 08:47:47;;;;;;;71.67;35.13;;;9.80;94.10;;;;;;5039712;28;20195;-90
2021/12/15 08:50:17;;;;;;;69.50;36.23;;;9.80;94.10;;;;;;5038462;28;20187;-91
2021/12/15 08:52:43;;;;;;;79.43;37.17;;;9.80;94.10;;;;;;5038554;28;20725;-90
2021/12/15 08:55:09;;;;;;;74.53;36.57;;;9.80;94.10;;;;;;5038466;28;20180;-90
2021/12/15 08:57:35;;;;;;;80.40;37.30;;;9.80;94.10;;;;;;5039626;28;20215;-89
2021/12/15 09:00:06;;;;;;;76.27;37.47;;;9.90;94.10;;;;;;5039596;28;20648;-91
2021/12/15 09:02:33;;;;;;;72.20;37.47;;;9.90;94.00;;;;;;5040153;28;20560;-91
2021/12/15 09:04:58;;;;;;;68.53;33.10;;;9.90;94.00;;;;;;5038420;28;20184;-89
2021/12/15 09:07:24;;;;;;;68.23;34.80;;;9.90;93.90;;;;;;5038444;28;20582;-91
2021/12/15 09:09:50;;;;;;;73.63;36.77;;;9.90;93.90;;;;;;5038645;28;20215;-91
2021/12/15 09:12:18;;;;;;;78.47;36.80;;;9.90;93.90;;;;;;5038554;28;20200;-91
2021/12/15 09:14:45;;;;;;;67.30;32.90;;;9.90;93.80;;;;;;5038256;28;20176;-91
2021/12/15 09:17:11;;;;;;;81.30;40.53;;;9.90;93.80;;;;;;5039577;28;20598;-89
2021/12/15 09:19:37;;;;;;;73.13;38.83;;;10.00;93.70;;;;;;5038793;28;20212;-89
2021/12/15 09:22:04;;;;;;;84.77;40.70;;;10.00;93.60;;;;;;5038281;28;20550;-91
2021/12/15 09:24:30;;;;;;;78.97;38.87;;;10.00;93.50;;;;;;5038249;28;20185;-91
2021/12/15 09:26:56;;;;;;;79.73;41.20;;;10.00;93.40;;;;;;5039325;28;20177;-91
2021/12/15 09:29:21;;;;;;;66.10;35.20;;;10.00;93.40;;;;;;5038144;28;20664;-90
2021/12/15 09:31:48;;;;;;;69.63;36.43;;;10.10;93.30;;;;;;5038801;28;20197;-91
2021/12/15 09:34:17;;;;;;;82.33;39.80;;;10.10;93.30;;;;;;5038171;28;20180;-91
2021/12/15 09:36:48;;;;;;;77.80;37.73;;;10.10;93.30;;;;;;5038458;28;20191;-91
2021/12/15 09:39:18;;;;;;;73.07;35.93;;;10.10;93.20;;;;;;5038709;28;20172;-91
2021/12/15 09:41:44;;;;;;;67.90;34.60;;;10.10;93.10;;;;;;5036159;28;20219;-91
2021/12/15 09:44:14;;;;;;;71.80;38.03;;;10.10;93.00;;;;;;5035188;28;20185;-91
2021/12/15 09:47:10;;;;;;;73.43;37.33;;;10.10;93.10;;;;;;5035002;28;20176;-91
2021/12/15 10:03:25;;;;;;;76.97;38.63;;;10.00;93.10;;;;;;5036270;28;20195;-91
2021/12/15 10:06:01;;;;;;;76.43;39.87;;;10.10;93.00;;;;;;5034912;28;20175;-91
2021/12/15 10:11:42;;;;;;;80.57;39.80;;;10.10;92.90;;;;;;5036042;28;20222;-91
2021/12/15 10:19:41;;;;;;;72.47;38.67;;;10.20;92.80;;;;;;5036104;28;20262;-91
2021/12/15 10:25:05;;;;;;;67.13;35.60;;;10.20;92.80;;;;;;5036290;28;20208;-91
2021/12/15 10:27:51;;;;;;;76.77;39.77;;;10.20;92.70;;;;;;5034148;28;20201;-90
2021/12/15 10:30:25;;;;;;;80.57;39.60;;;10.20;92.60;;;;;;5035390;28;20157;-90
2021/12/15 10:33:09;;;;;;;74.23;39.57;;;10.20;92.70;;;;;;5033959;28;20254;-91
2021/12/15 10:35:53;;;;;;;65.83;33.97;;;10.30;92.70;;;;;;5034582;28;20248;-91
2021/12/15 10:38:28;;;;;;;67.10;35.20;;;10.30;92.60;;;;;;5033979;28;20671;-91
2021/12/15 10:41:15;;;;;;;75.37;40.03;;;10.30;92.50;;;;;;5034729;28;20200;-91
2021/12/15 10:43:45;;;;;;;57.87;31.67;;;10.30;92.30;;;;;;5033978;28;20169;-91
2021/12/15 10:46:30;;;;;;;68.20;36.97;;;10.30;92.20;;;;;;5034226;28;20180;-90
2021/12/15 10:49:00;;;;;;;71.93;38.77;;;10.30;92.20;;;;;;5033666;28;20199;-91
2021/12/15 10:51:31;;;;;;;65.77;35.07;;;10.30;92.20;;;;;;5033864;28;20634;-91
2021/12/15 10:54:03;;;;;;;69.17;38.70;;;10.30;92.20;;;;;;5032600;28;20175;-91
2021/12/15 10:56:34;;;;;;;70.93;37.80;;;10.30;92.10;;;;;;5035258;28;20157;-91
2021/12/15 10:59:07;;;;;;;64.80;36.50;;;10.30;92.30;;;;;;5033620;28;20189;-91
2021/12/15 11:01:46;;;;;;;71.87;39.83;;;10.30;92.10;;;;;;5033373;28;20247;-90
2021/12/15 11:04:30;;;;;;;65.70;33.93;;;10.30;92.00;;;;;;5034246;28;20251;-90
2021/12/15 11:07:11;;;;;;;62.77;36.50;;;10.30;92.10;;;;;;5033327;28;20703;-90
2021/12/15 11:10:25;;;;;;;68.23;38.33;;;10.30;92.20;;;;;;5033329;28;20179;-91
2021/12/15 11:13:02;;;;;;;69.07;37.53;;;10.20;92.30;;;;;;5033652;28;20601;-90
2021/12/15 11:15:39;;;;;;;75.63;39.63;;;10.20;92.30;;;;;;5033254;28;20187;-90
2021/12/15 11:18:15;;;;;;;65.37;38.00;;;10.20;92.40;;;;;;5034462;28;20303;-90
2021/12/15 11:20:47;;;;;;;64.80;35.20;;;10.20;92.20;;;;;;5033041;28;20267;-90
2021/12/15 11:23:18;;;;;;;63.13;30.33;;;10.30;91.90;;;;;;5033235;28;20176;-90
2021/12/15 11:25:50;;;;;;;68.83;40.10;;;10.30;91.70;;;;;;5034312;28;20169;-90
2021/12/15 11:28:33;;;;;;;68.40;37.87;;;10.30;91.90;;;;;;5033091;28;20204;-90
2021/12/15 11:31:13;;;;;;;64.23;36.57;;;10.30;91.80;;;;;;5034307;28;20742;-90
2021/12/15 11:33:45;;;;;;;69.63;36.77;;;10.30;91.70;;;;;;5033083;28;20168;-90
2021/12/15 11:36:19;;;;;;;62.43;34.97;;;10.30;91.70;;;;;;5033133;28;20218;-90
2021/12/15 11:38:50;;;;;;;60.33;34.00;;;10.30;91.80;;;;;;5032904;28;20184;-90
2021/12/15 11:41:29;;;;;;;67.27;36.60;;;10.30;91.80;;;;;;5032693;28;20196;-90
2021/12/15 11:44:05;;;;;;;62.90;37.97;;;10.30;91.80;;;;;;5032806;28;20173;-91
2021/12/15 11:46:38;;;;;;;65.33;37.87;;;10.30;91.70;;;;;;5033555;28;20172;-90
2021/12/15 11:49:06;;;;;;;64.80;36.20;;;10.30;91.80;;;;;;5032728;28;20200;-89
2021/12/15 11:51:48;;;;;;;59.13;36.07;;;10.30;91.60;;;;;;5033162;28;20193;-90
2021/12/15 11:54:20;;;;;;;64.90;36.70;;;10.30;91.60;;;;;;5032640;28;20643;-90
2021/12/15 11:56:49;;;;;;;51.77;30.23;;;10.30;91.20;;;;;;5032538;28;20169;-90
2021/12/15 11:59:22;;;;;;;63.57;34.50;;;10.30;91.30;;;;;;5033497;28;20204;-91
2021/12/15 12:01:58;;;;;;;65.80;36.87;;;10.30;91.40;;;;;;5032447;28;20223;-90
2021/12/15 12:04:32;;;;;;;59.57;34.97;;;10.30;91.30;;;;;;5032044;28;20581;-90
2021/12/15 12:07:15;;;;;;;61.63;35.33;;;10.30;91.00;;;;;;5032312;28;20180;-91
2021/12/15 12:09:43;;;;;;;62.07;37.97;;;10.30;90.80;;;;;;5032380;28;20160;-90
2021/12/15 12:12:10;;;;;;;60.43;36.00;;;10.30;90.80;;;;;;5032238;28;20196;-91
2021/12/15 12:14:48;;;;;;;59.57;34.57;;;10.30;90.80;;;;;;5032889;28;20236;-91
2021/12/15 12:17:20;;;;;;;56.13;32.87;;;10.30;90.80;;;;;;5032402;28;20304;-91
2021/12/15 12:20:11;;;;;;;54.60;33.87;;;10.30;90.70;;;;;;5033590;28;20160;-90
2021/12/15 12:22:39;;;;;;;52.47;28.77;;;10.30;90.80;;;;;;5029488;28;20350;-90
2021/12/15 12:25:13;;;;;;;52.10;32.63;;;10.30;90.50;;;;;;5033414;28;20168;-90
2021/12/15 12:27:39;;;;;;;51.67;32.83;;;10.30;90.70;;;;;;5033361;28;20188;-90
2021/12/15 12:30:10;;;;;;;50.87;33.07;;;10.30;90.90;;;;;;5032473;28;20173;-90
2021/12/15 12:32:36;;;;;;;51.17;30.87;;;10.20;90.80;;;;;;5032247;28;20829;-90
2021/12/15 12:35:05;;;;;;;50.90;29.43;;;10.20;90.80;;;;;;5032153;28;20246;-90
2021/12/15 12:37:31;;;;;;;48.60;30.40;;;10.30;90.60;;;;;;5032078;28;20211;-90
2021/12/15 12:40:04;;;;;;;45.80;28.90;;;10.20;90.30;;;;;;5032077;28;20548;-90
2021/12/15 12:42:39;;;;;;;48.23;30.30;;;10.20;90.20;;;;;;5032028;28;20240;-90
2021/12/15 12:45:19;;;;;;;45.60;27.93;;;10.30;90.40;;;;;;5031998;28;20165;-91
2021/12/15 12:48:04;;;;;;;46.77;28.47;;;10.20;90.50;;;;;;5033477;28;20195;-90
2021/12/15 12:51:06;;;;;;;42.83;27.93;;;10.20;90.50;;;;;;5031801;28;20165;-90
2021/12/15 12:59:35;;;;;;;35.27;22.93;;;10.20;90.50;;;;;;5033511;28;20176;-92
2021/12/15 13:02:05;;;;;;;43.47;25.73;;;10.20;90.30;;;;;;5031978;28;20210;-90
2021/12/15 13:04:44;;;;;;;42.67;25.57;;;10.10;90.60;;;;;;5031758;28;20181;-90
2021/12/15 13:07:11;;;;;;;40.47;26.20;;;10.10;90.60;;;;;;5031964;28;20277;-90
2021/12/15 13:09:51;;;;;;;38.70;25.03;;;10.10;90.60;;;;;;5031793;28;20188;-90
2021/12/15 13:12:27;;;;;;;37.80;25.93;;;10.10;90.50;;;;;;5031712;28;20192;-90
2021/12/15 13:14:57;;;;;;;37.53;23.70;;;10.10;90.60;;;;;;5032004;28;20172;-90
2021/12/15 13:17:28;;;;;;;33.60;21.40;;;10.00;90.70;;;;;;5033710;28;20195;-90
2021/12/15 13:19:55;;;;;;;37.83;22.90;;;10.10;90.10;;;;;;5036678;28;20631;-91
2021/12/15 13:22:57;;;;;;;32.73;21.50;;;10.10;90.10;;;;;;5035510;28;20200;-91
2021/12/15 13:31:00;;;;;;;33.13;23.03;;;10.00;90.30;;;;;;5036704;28;20258;-90
2021/12/15 13:33:36;;;;;;;35.23;22.10;;;10.00;90.50;;;;;;5035125;28;20172;-91
2021/12/15 13:36:07;;;;;;;35.40;22.83;;;10.00;90.50;;;;;;5035146;28;20180;-90
2021/12/15 13:38:40;;;;;;;38.70;23.90;;;10.00;90.60;;;;;;5035294;28;20176;-90
2021/12/15 13:44:37;;;;;;;38.03;23.13;;;9.90;90.90;;;;;;5036365;28;20188;-90
2021/12/15 13:47:09;;;;;;;37.27;22.50;;;9.90;90.70;;;;;;5036152;28;20331;-91
2021/12/15 13:49:44;;;;;;;38.03;23.00;;;10.00;90.60;;;;;;5034948;28;20648;-90
2021/12/15 13:52:28;;;;;;;33.37;21.37;;;9.90;90.80;;;;;;5035973;28;20238;-90
2021/12/15 13:55:27;;;;;;;34.17;21.73;;;9.90;90.60;;;;;;5034541;28;20184;-90
2021/12/15 13:57:55;;;;;;;40.90;23.17;;;9.90;90.60;;;;;;5034729;28;20173;-90
2021/12/15 14:00:23;;;;;;;41.50;24.70;;;9.90;90.70;;;;;;5034642;28;20177;-91
2021/12/15 14:03:14;;;;;;;32.30;23.17;;;9.90;90.70;;;;;;5035105;28;20285;-90
2021/12/15 14:05:45;;;;;;;36.00;22.83;;;9.80;90.90;;;;;;5034484;28;20177;-91
2021/12/15 14:08:46;;;;;;;37.00;23.50;;;9.80;90.90;;;;;;5034396;28;20222;-90
2021/12/15 14:11:24;;;;;;;37.47;24.00;;;9.80;90.60;;;;;;5034538;28;20202;-90
2021/12/15 14:14:06;;;;;;;48.87;25.10;;;9.80;90.40;;;;;;5034507;28;20214;-90